Time;durP1;ratioP1;P1;durP2;ratioP2;P2;SDS_P1;SDS_P2;PMS_P1;PMS_P2;Temp;Humidity;BMP_temperature;BMP_pressure;BME280_temperature;BME280_humidity;BME280_pressure;Samples;Min_cycle;Max_cycle;Signal;HPM_P1;HPM_P2
2021/12/15 00:00:39;;;;;;;15.03;12.07;;;;;;;;;;5025002;28;20250;-55
2021/12/15 00:03:06;;;;;;;14.37;11.30;;;;;;;;;;5027031;28;20186;-55
2021/12/15 00:05:32;;;;;;;14.97;12.27;;;;;;;;;;5027395;28;20240;-56
2021/12/15 00:08:01;;;;;;;18.27;13.13;;;;;;;;;;5027074;28;20170;-56
2021/12/15 00:10:27;;;;;;;14.83;11.47;;;;;;;;;;5009323;28;20209;-56
2021/12/15 00:12:54;;;;;;;16.17;11.97;;;;;;;;;;5009722;28;20580;-55
2021/12/15 00:15:23;;;;;;;19.00;12.43;;;;;;;;;;5007772;28;20182;-55
2021/12/15 00:17:49;;;;;;;14.73;11.53;;;;;;;;;;5009303;28;20193;-56
2021/12/15 00:20:17;;;;;;;16.90;12.73;;;;;;;;;;5009527;28;20657;-56
2021/12/15 00:22:44;;;;;;;18.47;12.33;;;;;;;;;;5020742;28;20178;-55
2021/12/15 00:25:11;;;;;;;16.17;11.50;;;;;;;;;;4993194;28;20209;-55
2021/12/15 00:27:38;;;;;;;16.80;12.80;;;;;;;;;;5025631;28;20178;-57
2021/12/15 00:30:06;;;;;;;15.83;11.57;;;;;;;;;;5008035;28;20205;-55
2021/12/15 00:32:32;;;;;;;15.83;11.83;;;;;;;;;;5025761;28;20691;-55
2021/12/15 00:34:58;;;;;;;16.30;11.93;;;;;;;;;;5027241;28;20232;-56
2021/12/15 00:37:24;;;;;;;15.27;11.67;;;;;;;;;;5027309;28;20193;-55
2021/12/15 00:39:51;;;;;;;14.63;11.10;;;;;;;;;;5009756;28;20712;-55
2021/12/15 00:42:17;;;;;;;18.37;11.53;;;;;;;;;;5027803;28;20272;-56
2021/12/15 00:44:43;;;;;;;19.13;12.00;;;;;;;;;;5025160;28;20178;-55
2021/12/15 00:47:10;;;;;;;14.40;11.43;;;;;;;;;;5028066;28;20273;-55
2021/12/15 00:49:36;;;;;;;16.67;12.43;;;;;;;;;;5009470;28;20186;-56
2021/12/15 00:52:02;;;;;;;14.87;11.60;;;;;;;;;;5028118;28;20633;-55
2021/12/15 00:54:28;;;;;;;16.90;11.73;;;;;;;;;;5026721;28;20296;-56
2021/12/15 00:56:55;;;;;;;12.60;10.90;;;;;;;;;;5027560;28;20209;-56
2021/12/15 00:59:22;;;;;;;15.80;11.00;;;;;;;;;;5025564;28;20581;-56
2021/12/15 01:01:48;;;;;;;17.60;12.40;;;;;;;;;;5009308;28;20186;-55
2021/12/15 01:04:16;;;;;;;12.77;10.27;;;;;;;;;;5026934;28;20275;-56
2021/12/15 01:06:43;;;;;;;14.97;11.37;;;;;;;;;;5026500;28;20198;-56
2021/12/15 01:09:12;;;;;;;13.63;10.80;;;;;;;;;;5027935;28;20285;-55
2021/12/15 01:20:24;;;;;;;13.47;9.93;;;;;;;;;;4999404;28;20193;-55
2021/12/15 01:22:52;;;;;;;13.37;10.50;;;;;;;;;;5032040;28;20757;-55
2021/12/15 01:25:29;;;;;;;16.03;10.87;;;;;;;;;;5031079;28;20228;-54
2021/12/15 01:27:55;;;;;;;12.67;10.30;;;;;;;;;;5024613;28;20196;-55
2021/12/15 01:30:25;;;;;;;13.90;10.37;;;;;;;;;;5028001;28;20178;-55
2021/12/15 01:32:51;;;;;;;13.70;10.57;;;;;;;;;;5031187;28;20199;-57
2021/12/15 01:35:17;;;;;;;14.47;10.43;;;;;;;;;;5030256;28;20189;-55
2021/12/15 01:37:44;;;;;;;12.80;10.03;;;;;;;;;;5030354;28;20216;-56
2021/12/15 01:40:18;;;;;;;13.07;10.07;;;;;;;;;;5012126;28;20186;-57
2021/12/15 01:42:45;;;;;;;14.87;11.50;;;;;;;;;;5030440;28;20530;-56
2021/12/15 01:48:04;;;;;;;14.23;10.60;;;;;;;;;;5029374;28;20228;-56
2021/12/15 01:50:30;;;;;;;13.67;10.80;;;;;;;;;;5030490;28;20181;-55
2021/12/15 01:52:56;;;;;;;12.77;10.40;;;;;;;;;;5029294;28;20181;-55
2021/12/15 01:55:22;;;;;;;12.10;10.17;;;;;;;;;;5029503;28;20245;-56
2021/12/15 01:57:49;;;;;;;16.63;10.40;;;;;;;;;;5029703;28;20259;-56
2021/12/15 02:00:21;;;;;;;14.53;10.73;;;;;;;;;;5028951;28;20188;-55
2021/12/15 02:02:49;;;;;;;16.10;10.13;;;;;;;;;;5033875;28;20227;-55
2021/12/15 02:05:16;;;;;;;15.57;10.23;;;;;;;;;;5027810;28;20213;-56
2021/12/15 02:07:44;;;;;;;13.63;9.70;;;;;;;;;;5029614;28;20181;-55
2021/12/15 02:10:11;;;;;;;13.83;10.73;;;;;;;;;;5029353;28;20695;-56
2021/12/15 02:12:38;;;;;;;12.87;9.97;;;;;;;;;;5030000;28;20178;-55
2021/12/15 02:15:07;;;;;;;12.87;9.37;;;;;;;;;;5028733;28;20513;-56
2021/12/15 02:17:33;;;;;;;14.33;10.57;;;;;;;;;;5010831;28;20633;-55
2021/12/15 02:19:59;;;;;;;12.47;10.43;;;;;;;;;;5029435;28;20534;-55
2021/12/15 02:22:28;;;;;;;11.60;10.03;;;;;;;;;;5028682;28;20268;-56
2021/12/15 02:24:54;;;;;;;12.63;10.43;;;;;;;;;;5029197;28;20200;-55
2021/12/15 02:27:21;;;;;;;13.13;10.90;;;;;;;;;;5029082;28;20190;-54
2021/12/15 02:29:52;;;;;;;14.17;10.17;;;;;;;;;;5027583;28;20189;-55
2021/12/15 02:32:40;;;;;;;12.87;10.47;;;;;;;;;;5028001;28;20174;-55
2021/12/15 02:37:51;;;;;;;12.33;9.77;;;;;;;;;;5028773;28;20256;-55
2021/12/15 02:40:19;;;;;;;13.97;10.10;;;;;;;;;;5028824;28;20565;-56
2021/12/15 02:42:46;;;;;;;12.97;10.13;;;;;;;;;;5028748;28;20207;-54
2021/12/15 02:45:15;;;;;;;13.20;10.30;;;;;;;;;;5027814;28;20304;-56
2021/12/15 02:47:42;;;;;;;12.90;10.33;;;;;;;;;;5028068;28;20181;-55
2021/12/15 02:50:10;;;;;;;13.07;9.63;;;;;;;;;;5010004;28;20232;-55
2021/12/15 02:52:36;;;;;;;12.50;10.07;;;;;;;;;;5029045;28;20185;-55
2021/12/15 02:55:03;;;;;;;13.20;9.23;;;;;;;;;;5005167;28;21074;-56
2021/12/15 02:57:29;;;;;;;13.70;10.63;;;;;;;;;;5004564;28;20277;-55
2021/12/15 03:00:01;;;;;;;13.83;9.90;;;;;;;;;;5014533;28;21024;-55
2021/12/15 03:05:14;;;;;;;12.27;9.13;;;;;;;;;;5006432;28;20296;-55
2021/12/15 03:07:52;;;;;;;12.77;9.37;;;;;;;;;;5006903;28;20599;-56
2021/12/15 03:15:49;;;;;;;16.30;9.60;;;;;;;;;;5005562;28;20204;-56
2021/12/15 03:18:17;;;;;;;13.17;10.67;;;;;;;;;;5007138;28;20190;-56
2021/12/15 03:20:48;;;;;;;12.97;9.70;;;;;;;;;;5005470;28;20657;-55
2021/12/15 03:23:18;;;;;;;13.20;10.23;;;;;;;;;;4988991;28;20201;-56
2021/12/15 03:25:44;;;;;;;11.97;9.07;;;;;;;;;;5006682;28;20240;-55
2021/12/15 03:33:56;;;;;;;12.17;10.07;;;;;;;;;;5006980;28;20202;-56
2021/12/15 03:37:04;;;;;;;12.60;9.50;;;;;;;;;;4996641;28;20217;-55
2021/12/15 03:39:29;;;;;;;13.37;10.00;;;;;;;;;;5004419;28;20198;-55
2021/12/15 03:42:00;;;;;;;16.30;10.10;;;;;;;;;;5009463;28;20178;-55
2021/12/15 03:44:27;;;;;;;13.47;10.47;;;;;;;;;;5006813;28;20657;-56
2021/12/15 03:46:53;;;;;;;15.20;10.20;;;;;;;;;;5002607;28;20198;-57
2021/12/15 03:49:19;;;;;;;13.00;10.13;;;;;;;;;;4981479;28;20233;-56
2021/12/15 03:51:45;;;;;;;15.67;10.27;;;;;;;;;;5008537;28;20186;-56
2021/12/15 03:54:11;;;;;;;12.93;10.20;;;;;;;;;;5014981;28;20205;-55
2021/12/15 03:56:43;;;;;;;13.80;9.97;;;;;;;;;;5029025;28;20203;-56
2021/12/15 03:59:09;;;;;;;11.70;9.57;;;;;;;;;;5027119;28;20565;-55
2021/12/15 04:01:35;;;;;;;11.67;10.03;;;;;;;;;;5028134;28;20177;-56
2021/12/15 04:04:01;;;;;;;14.53;10.27;;;;;;;;;;5028726;28;20268;-54
2021/12/15 04:06:35;;;;;;;15.47;10.27;;;;;;;;;;5027638;28;20212;-56
2021/12/15 04:09:01;;;;;;;15.23;10.23;;;;;;;;;;5028270;28;20408;-56
2021/12/15 04:11:33;;;;;;;15.00;10.33;;;;;;;;;;5028025;28;20260;-57
2021/12/15 04:14:00;;;;;;;15.83;10.43;;;;;;;;;;5010796;28;20575;-55
2021/12/15 04:16:59;;;;;;;14.67;11.20;;;;;;;;;;5026339;28;20220;-56
2021/12/15 04:19:15;;;;;;;12.07;9.90;;;;;;;;;;5026701;28;20198;-55
2021/12/15 04:21:42;;;;;;;14.50;10.23;;;;;;;;;;4992029;28;20214;-55
2021/12/15 04:24:10;;;;;;;12.27;9.80;;;;;;;;;;5027884;28;20652;-56
2021/12/15 04:26:36;;;;;;;13.47;10.40;;;;;;;;;;5027704;28;20210;-57
2021/12/15 04:29:03;;;;;;;11.23;9.70;;;;;;;;;;5027218;28;20240;-55
2021/12/15 04:31:31;;;;;;;12.07;10.13;;;;;;;;;;5027210;28;20188;-55
2021/12/15 04:34:03;;;;;;;10.53;9.30;;;;;;;;;;5028265;28;20174;-56
2021/12/15 04:36:31;;;;;;;11.37;8.87;;;;;;;;;;5026613;28;20188;-55
2021/12/15 04:38:58;;;;;;;10.37;8.63;;;;;;;;;;5027638;28;20231;-56
2021/12/15 04:41:25;;;;;;;11.10;8.30;;;;;;;;;;5027506;28;20196;-56
2021/12/15 04:43:57;;;;;;;10.80;8.90;;;;;;;;;;5027674;28;20182;-56
2021/12/15 04:46:29;;;;;;;12.17;9.73;;;;;;;;;;5012682;28;20688;-57
2021/12/15 04:48:55;;;;;;;10.90;8.93;;;;;;;;;;5030119;28;20654;-54
2021/12/15 04:51:22;;;;;;;12.90;9.53;;;;;;;;;;5030532;28;20193;-55
2021/12/15 04:53:49;;;;;;;11.80;9.37;;;;;;;;;;5030676;28;20251;-56
2021/12/15 04:56:16;;;;;;;10.63;9.47;;;;;;;;;;5031205;28;20216;-56
2021/12/15 04:58:43;;;;;;;10.87;9.03;;;;;;;;;;5030243;28;20181;-55
2021/12/15 05:01:11;;;;;;;10.43;9.00;;;;;;;;;;5029558;28;20182;-56
2021/12/15 05:03:38;;;;;;;11.73;9.00;;;;;;;;;;5030996;28;20178;-57
2021/12/15 05:06:04;;;;;;;11.97;9.07;;;;;;;;;;5031075;28;20205;-55
2021/12/15 05:08:30;;;;;;;11.07;9.50;;;;;;;;;;5030934;28;20713;-55
2021/12/15 05:10:57;;;;;;;8.87;7.73;;;;;;;;;;5032745;28;20652;-55
2021/12/15 05:13:23;;;;;;;11.67;9.73;;;;;;;;;;5030728;28;20182;-56
2021/12/15 05:15:50;;;;;;;10.40;8.97;;;;;;;;;;5030552;28;20185;-56
2021/12/15 05:18:16;;;;;;;11.30;9.90;;;;;;;;;;5030791;28;20189;-55
2021/12/15 05:20:47;;;;;;;10.97;8.80;;;;;;;;;;5030404;28;20662;-55
2021/12/15 05:23:15;;;;;;;12.03;9.23;;;;;;;;;;5028816;28;20193;-56
2021/12/15 05:25:41;;;;;;;12.90;9.57;;;;;;;;;;5030869;28;20232;-56
2021/12/15 05:28:07;;;;;;;11.83;9.27;;;;;;;;;;5029722;28;20260;-55
2021/12/15 05:30:34;;;;;;;12.30;9.10;;;;;;;;;;5011392;28;20660;-55
2021/12/15 05:33:00;;;;;;;13.07;10.23;;;;;;;;;;5023306;28;20178;-56
2021/12/15 05:35:26;;;;;;;10.67;9.37;;;;;;;;;;5031430;28;20522;-55
2021/12/15 05:37:55;;;;;;;12.30;9.87;;;;;;;;;;5030419;28;20239;-56
2021/12/15 05:40:21;;;;;;;12.20;10.07;;;;;;;;;;5031413;28;20192;-55
2021/12/15 05:42:48;;;;;;;12.97;9.80;;;;;;;;;;5030019;28;20193;-55
2021/12/15 05:45:14;;;;;;;13.10;10.20;;;;;;;;;;5023284;28;20212;-56
2021/12/15 05:47:40;;;;;;;12.23;10.07;;;;;;;;;;5029458;28;20178;-55
2021/12/15 05:50:08;;;;;;;14.23;9.57;;;;;;;;;;5027012;28;20214;-56
2021/12/15 05:52:34;;;;;;;13.87;10.63;;;;;;;;;;5023338;28;20232;-56
2021/12/15 05:55:01;;;;;;;15.10;11.07;;;;;;;;;;5025300;28;20229;-55
2021/12/15 05:57:27;;;;;;;12.70;10.57;;;;;;;;;;5028328;28;20202;-55
2021/12/15 05:59:53;;;;;;;15.97;10.73;;;;;;;;;;5029448;28;20217;-55
2021/12/15 06:02:19;;;;;;;13.17;10.67;;;;;;;;;;5029925;28;20440;-56
2021/12/15 06:04:46;;;;;;;12.60;10.00;;;;;;;;;;5030689;28;20174;-56
2021/12/15 06:07:12;;;;;;;13.20;10.17;;;;;;;;;;5013821;28;20197;-55
2021/12/15 06:09:38;;;;;;;13.23;10.23;;;;;;;;;;5036533;28;20216;-54
2021/12/15 06:12:05;;;;;;;11.57;9.90;;;;;;;;;;5022450;28;20531;-54
2021/12/15 06:14:31;;;;;;;14.20;10.60;;;;;;;;;;5029389;28;20603;-55
2021/12/15 06:17:05;;;;;;;12.10;10.50;;;;;;;;;;5032800;28;20177;-55
2021/12/15 06:19:31;;;;;;;13.50;10.27;;;;;;;;;;5025250;28;20260;-55
2021/12/15 06:21:57;;;;;;;12.23;10.07;;;;;;;;;;5030323;28;20170;-56
2021/12/15 06:24:23;;;;;;;12.77;10.30;;;;;;;;;;5029810;28;20182;-55
2021/12/15 06:26:50;;;;;;;12.73;10.87;;;;;;;;;;5030026;28;20236;-56
2021/12/15 06:29:16;;;;;;;13.30;10.53;;;;;;;;;;5010651;28;20273;-56
2021/12/15 06:31:42;;;;;;;13.37;10.23;;;;;;;;;;5028296;28;20178;-55
2021/12/15 06:34:08;;;;;;;13.13;10.30;;;;;;;;;;5029676;28;20170;-56
2021/12/15 06:36:36;;;;;;;15.97;10.30;;;;;;;;;;5029570;28;20232;-56
2021/12/15 06:39:04;;;;;;;13.03;9.37;;;;;;;;;;5014251;28;20193;-55
2021/12/15 06:41:30;;;;;;;13.57;12.18;;;;;;;;;;5028757;28;20808;-56
2021/12/15 06:43:57;;;;;;;16.57;11.93;;;;;;;;;;5029255;28;20178;-56
2021/12/15 06:59:53;;;;;;;14.57;11.93;;;;;;;;;;5027905;28;20557;-56
2021/12/15 07:02:19;;;;;;;15.70;13.00;;;;;;;;;;5029473;28;20181;-55
2021/12/15 07:04:45;;;;;;;13.97;11.37;;;;;;;;;;5029251;28;20178;-56
2021/12/15 07:07:11;;;;;;;16.87;13.43;;;;;;;;;;5029393;28;20292;-56
2021/12/15 07:09:37;;;;;;;22.87;12.60;;;;;;;;;;5028148;28;20268;-56
2021/12/15 07:12:04;;;;;;;15.37;11.87;;;;;;;;;;5028695;28;20552;-56
2021/12/15 07:14:30;;;;;;;19.17;12.63;;;;;;;;;;5026534;28;20185;-55
2021/12/15 07:16:58;;;;;;;16.60;12.97;;;;;;;;;;5030877;28;20195;-56
2021/12/15 07:22:06;;;;;;;15.53;12.20;;;;;;;;;;5031212;28;20637;-56
2021/12/15 07:24:33;;;;;;;17.07;12.70;;;;;;;;;;5024454;28;20292;-56
2021/12/15 07:26:59;;;;;;;21.40;13.37;;;;;;;;;;5029338;28;20210;-56
2021/12/15 07:29:26;;;;;;;17.13;13.43;;;;;;;;;;5013484;28;20182;-56
2021/12/15 07:31:52;;;;;;;17.33;13.23;;;;;;;;;;5035499;28;20216;-56
2021/12/15 07:34:18;;;;;;;18.00;13.07;;;;;;;;;;5027866;28;20206;-56
2021/12/15 07:36:44;;;;;;;17.57;13.70;;;;;;;;;;5029101;28;20644;-56
2021/12/15 07:39:12;;;;;;;18.60;14.00;;;;;;;;;;5025258;28;20272;-57
2021/12/15 07:41:49;;;;;;;18.07;13.97;;;;;;;;;;5029530;28;20189;-56
2021/12/15 07:44:15;;;;;;;22.40;14.70;;;;;;;;;;5027342;28;20177;-55
2021/12/15 07:46:42;;;;;;;18.93;13.67;;;;;;;;;;5028524;28;20576;-56
2021/12/15 07:49:08;;;;;;;19.73;13.83;;;;;;;;;;5028507;28;20700;-56
2021/12/15 07:51:34;;;;;;;20.27;12.60;;;;;;;;;;5027872;28;20181;-56
2021/12/15 07:54:00;;;;;;;17.13;12.70;;;;;;;;;;5028792;28;20170;-56
2021/12/15 07:56:26;;;;;;;19.83;13.73;;;;;;;;;;5027531;28;20213;-56
2021/12/15 07:58:52;;;;;;;17.17;13.13;;;;;;;;;;5028130;28;20181;-56
2021/12/15 08:01:20;;;;;;;19.57;13.40;;;;;;;;;;5026685;28;20283;-55
2021/12/15 08:03:51;;;;;;;18.60;13.73;;;;;;;;;;5028840;28;20224;-56
2021/12/15 08:06:17;;;;;;;19.73;13.37;;;;;;;;;;5025751;28;20201;-56
2021/12/15 08:08:43;;;;;;;21.40;14.10;;;;;;;;;;5028723;28;20284;-56
2021/12/15 08:11:09;;;;;;;17.53;13.30;;;;;;;;;;5028096;28;20291;-56
2021/12/15 08:13:36;;;;;;;19.23;14.47;;;;;;;;;;5027551;28;20227;-56
2021/12/15 08:16:02;;;;;;;19.30;14.20;;;;;;;;;;5027082;28;20170;-56
2021/12/15 08:18:29;;;;;;;20.07;13.60;;;;;;;;;;5028109;28;20243;-56
2021/12/15 08:20:55;;;;;;;19.27;14.73;;;;;;;;;;5034013;28;20189;-56
2021/12/15 08:23:24;;;;;;;16.13;14.07;;;;;;;;;;5026933;28;20185;-56
2021/12/15 08:25:50;;;;;;;21.10;15.27;;;;;;;;;;5035964;28;20300;-56
2021/12/15 08:28:17;;;;;;;17.80;13.37;;;;;;;;;;5013367;28;20268;-56
2021/12/15 08:30:44;;;;;;;17.60;13.23;;;;;;;;;;5032924;28;20185;-56
2021/12/15 08:33:12;;;;;;;17.20;12.67;;;;;;;;;;5034888;28;20181;-56
2021/12/15 08:35:44;;;;;;;16.57;12.57;;;;;;;;;;5033989;28;20239;-56
2021/12/15 08:38:11;;;;;;;21.77;14.40;;;;;;;;;;5034826;28;20212;-56
2021/12/15 08:40:38;;;;;;;20.30;15.43;;;;;;;;;;5034789;28;20238;-56
2021/12/15 08:43:06;;;;;;;16.83;13.27;;;;;;;;;;5034070;28;20212;-56
2021/12/15 08:45:32;;;;;;;17.03;13.27;;;;;;;;;;5033888;28;20197;-56
2021/12/15 08:47:59;;;;;;;24.17;14.03;;;;;;;;;;5033603;28;20300;-56
2021/12/15 08:50:27;;;;;;;21.83;14.30;;;;;;;;;;5031489;28;20530;-57
2021/12/15 08:52:54;;;;;;;18.10;13.73;;;;;;;;;;5034936;28;20182;-57
2021/12/15 08:55:20;;;;;;;17.10;12.70;;;;;;;;;;5034772;28;20296;-57
2021/12/15 08:57:49;;;;;;;19.03;13.37;;;;;;;;;;5033915;28;20201;-57
2021/12/15 09:00:17;;;;;;;18.43;13.73;;;;;;;;;;5032089;28;20243;-57
2021/12/15 09:02:43;;;;;;;18.03;14.37;;;;;;;;;;5020432;28;20718;-57
2021/12/15 09:05:10;;;;;;;17.80;13.77;;;;;;;;;;5033857;28;20184;-57
2021/12/15 09:07:36;;;;;;;16.10;12.87;;;;;;;;;;5034417;28;20180;-57
2021/12/15 09:10:03;;;;;;;17.60;13.67;;;;;;;;;;5033653;28;20174;-58
2021/12/15 09:12:30;;;;;;;16.27;13.80;;;;;;;;;;5039396;28;20173;-57
2021/12/15 09:14:56;;;;;;;17.77;13.37;;;;;;;;;;5033263;28;20205;-58
2021/12/15 09:17:22;;;;;;;17.07;13.73;;;;;;;;;;5039136;28;20243;-57
2021/12/15 09:19:48;;;;;;;17.93;13.67;;;;;;;;;;5033667;28;20228;-57
2021/12/15 09:22:14;;;;;;;20.70;13.67;;;;;;;;;;5034279;28;20189;-57
2021/12/15 09:24:41;;;;;;;15.83;13.40;;;;;;;;;;5034184;28;20645;-57
2021/12/15 09:27:07;;;;;;;14.83;12.60;;;;;;;;;;5034347;28;20198;-57
2021/12/15 09:29:33;;;;;;;21.43;14.30;;;;;;;;;;5014169;28;20285;-58
2021/12/15 09:31:59;;;;;;;16.80;13.23;;;;;;;;;;5031598;28;20193;-58
2021/12/15 09:34:26;;;;;;;17.77;14.13;;;;;;;;;;5013024;28;20545;-58
2021/12/15 09:36:54;;;;;;;20.73;14.43;;;;;;;;;;5031353;28;20182;-57
2021/12/15 09:39:21;;;;;;;17.50;13.87;;;;;;;;;;5038437;28;20203;-57
2021/12/15 09:41:48;;;;;;;20.77;14.63;;;;;;;;;;5027454;28;20181;-57
2021/12/15 09:44:17;;;;;;;21.37;15.63;;;;;;;;;;5031403;28;20188;-57
2021/12/15 10:03:15;;;;;;;17.63;13.80;;;;;;;;;;5030714;28;20169;-58
2021/12/15 10:19:41;;;;;;;19.70;15.50;;;;;;;;;;5030249;28;20679;-57
2021/12/15 10:22:42;;;;;;;21.60;15.87;;;;;;;;;;5030153;28;20198;-57
2021/12/15 10:25:11;;;;;;;21.50;15.23;;;;;;;;;;5016233;28;20213;-58
2021/12/15 10:27:48;;;;;;;20.50;16.43;;;;;;;;;;5029424;28;20170;-57
2021/12/15 10:30:19;;;;;;;16.80;13.97;;;;;;;;;;5025268;28;20718;-56
2021/12/15 10:32:45;;;;;;;21.33;16.37;;;;;;;;;;5030134;28;20257;-57
2021/12/15 10:35:14;;;;;;;23.80;17.30;;;;;;;;;;5030354;28;20170;-57
2021/12/15 10:37:41;;;;;;;22.70;15.53;;;;;;;;;;5029663;28;20174;-57
2021/12/15 10:40:12;;;;;;;20.37;15.53;;;;;;;;;;5029873;28;20182;-57
2021/12/15 10:42:38;;;;;;;22.07;15.70;;;;;;;;;;5000221;28;20541;-57
2021/12/15 10:45:09;;;;;;;20.00;15.83;;;;;;;;;;5028832;28;20574;-57
2021/12/15 10:47:43;;;;;;;22.30;15.60;;;;;;;;;;5029562;28;20162;-57
2021/12/15 10:50:14;;;;;;;23.90;16.20;;;;;;;;;;5029698;28;20178;-57
2021/12/15 10:52:50;;;;;;;25.27;16.30;;;;;;;;;;5001520;28;20178;-57
2021/12/15 10:55:16;;;;;;;24.93;16.20;;;;;;;;;;5029375;28;20395;-57
2021/12/15 10:57:44;;;;;;;22.07;15.70;;;;;;;;;;5029063;28;20204;-57
2021/12/15 11:00:12;;;;;;;27.03;16.83;;;;;;;;;;5026721;28;20185;-57
2021/12/15 11:02:39;;;;;;;22.67;16.03;;;;;;;;;;5029559;28;20176;-57
2021/12/15 11:05:05;;;;;;;23.87;16.07;;;;;;;;;;5009178;28;20205;-56
2021/12/15 11:07:32;;;;;;;24.43;16.60;;;;;;;;;;5029295;28;20200;-57
2021/12/15 11:10:05;;;;;;;25.30;16.60;;;;;;;;;;5011015;28;20224;-57
2021/12/15 11:12:42;;;;;;;25.77;16.97;;;;;;;;;;5028853;28;20185;-57
2021/12/15 11:15:22;;;;;;;23.47;16.67;;;;;;;;;;5020751;28;20193;-58
2021/12/15 11:17:56;;;;;;;21.10;15.87;;;;;;;;;;5034068;28;20624;-57
2021/12/15 11:20:24;;;;;;;22.33;16.03;;;;;;;;;;5033410;28;20666;-58
2021/12/15 11:22:58;;;;;;;25.77;17.67;;;;;;;;;;4999398;28;20178;-57
2021/12/15 11:25:29;;;;;;;22.23;15.57;;;;;;;;;;5023272;28;20186;-57
2021/12/15 11:28:15;;;;;;;26.30;16.73;;;;;;;;;;5032921;28;20189;-56
2021/12/15 11:30:46;;;;;;;21.83;15.47;;;;;;;;;;4997367;28;20636;-57
2021/12/15 11:33:37;;;;;;;21.67;15.77;;;;;;;;;;5033359;28;20170;-58
2021/12/15 11:36:17;;;;;;;27.73;17.30;;;;;;;;;;5021329;28;20198;-57
2021/12/15 11:38:46;;;;;;;20.37;15.47;;;;;;;;;;5028299;28;20193;-57
2021/12/15 11:41:15;;;;;;;27.37;17.73;;;;;;;;;;5028748;28;20280;-57
2021/12/15 11:43:46;;;;;;;25.30;17.77;;;;;;;;;;5026675;28;20182;-57
2021/12/15 11:46:23;;;;;;;22.80;17.10;;;;;;;;;;5027143;28;20801;-57
2021/12/15 11:49:01;;;;;;;25.13;16.67;;;;;;;;;;5030297;28;20177;-57
2021/12/15 11:51:32;;;;;;;23.90;15.87;;;;;;;;;;5028771;28;20652;-57
2021/12/15 11:53:59;;;;;;;21.90;16.30;;;;;;;;;;5025837;28;20181;-57
2021/12/15 11:56:27;;;;;;;25.50;17.40;;;;;;;;;;5028662;28;20687;-58
2021/12/15 11:58:57;;;;;;;24.07;17.27;;;;;;;;;;5027878;28;20174;-57
2021/12/15 12:01:44;;;;;;;24.87;18.33;;;;;;;;;;5027475;28;20189;-57
2021/12/15 12:04:15;;;;;;;25.53;17.73;;;;;;;;;;5027610;28;20207;-57
2021/12/15 12:06:41;;;;;;;25.20;16.70;;;;;;;;;;5028217;28;20205;-57
2021/12/15 12:09:07;;;;;;;27.67;17.67;;;;;;;;;;5028259;28;20177;-57
2021/12/15 12:11:39;;;;;;;21.70;16.60;;;;;;;;;;5028701;28;20170;-57
2021/12/15 12:14:07;;;;;;;25.20;17.83;;;;;;;;;;5027808;28;20162;-57
2021/12/15 12:16:33;;;;;;;26.53;17.00;;;;;;;;;;5027241;28;20619;-57
2021/12/15 12:19:00;;;;;;;23.53;17.40;;;;;;;;;;5010499;28;20680;-57
2021/12/15 12:21:26;;;;;;;27.67;17.53;;;;;;;;;;5028055;28;20186;-57
2021/12/15 12:23:52;;;;;;;24.93;17.77;;;;;;;;;;5010646;28;20216;-57
2021/12/15 12:26:26;;;;;;;24.53;16.70;;;;;;;;;;5028073;28;20267;-57
2021/12/15 12:28:52;;;;;;;23.90;17.30;;;;;;;;;;5027740;28;20188;-57
2021/12/15 12:31:20;;;;;;;28.33;17.97;;;;;;;;;;5026295;28;20268;-57
2021/12/15 12:33:47;;;;;;;26.40;18.27;;;;;;;;;;5010266;28;20185;-57
2021/12/15 12:36:15;;;;;;;26.43;19.03;;;;;;;;;;5028095;28;20192;-57
2021/12/15 12:38:49;;;;;;;24.43;16.77;;;;;;;;;;5004218;28;20197;-57
2021/12/15 12:41:20;;;;;;;25.43;18.33;;;;;;;;;;5010231;28;20181;-57
2021/12/15 12:43:48;;;;;;;32.73;19.10;;;;;;;;;;5026091;28;20601;-57
2021/12/15 12:46:26;;;;;;;25.97;17.63;;;;;;;;;;5030899;28;20220;-57
2021/12/15 12:49:25;;;;;;;27.03;19.33;;;;;;;;;;5028994;28;20229;-57
2021/12/15 13:00:01;;;;;;;31.10;18.90;;;;;;;;;;5025045;28;20277;-57
2021/12/15 13:04:53;;;;;;;28.60;19.10;;;;;;;;;;5027256;28;20190;-57
2021/12/15 13:07:39;;;;;;;34.30;20.30;;;;;;;;;;5032167;28;20753;-57
2021/12/15 13:10:05;;;;;;;29.17;19.27;;;;;;;;;;5024673;28;20173;-57
2021/12/15 13:12:37;;;;;;;31.60;20.37;;;;;;;;;;5031181;28;20184;-57
2021/12/15 13:15:03;;;;;;;32.77;19.13;;;;;;;;;;5028356;28;20182;-56
2021/12/15 13:17:36;;;;;;;32.20;20.47;;;;;;;;;;5030565;28;20213;-57
2021/12/15 13:20:03;;;;;;;32.70;19.93;;;;;;;;;;5023760;28;20569;-57
2021/12/15 13:22:40;;;;;;;33.57;19.77;;;;;;;;;;5031294;28;20656;-57
2021/12/15 13:30:49;;;;;;;31.27;19.77;;;;;;;;;;5028420;28;20696;-57
2021/12/15 13:33:18;;;;;;;34.20;19.77;;;;;;;;;;5018516;28;20538;-57
2021/12/15 13:35:44;;;;;;;32.73;19.57;;;;;;;;;;5030588;28;20189;-57
2021/12/15 13:38:10;;;;;;;33.10;21.40;;;;;;;;;;5031192;28;20193;-57
2021/12/15 13:40:52;;;;;;;31.47;19.97;;;;;;;;;;5028932;28;20186;-58
2021/12/15 13:43:34;;;;;;;33.93;19.83;;;;;;;;;;5030466;28;20177;-57
2021/12/15 13:46:00;;;;;;;28.77;19.47;;;;;;;;;;5029108;28;20237;-57
2021/12/15 13:48:45;;;;;;;31.07;20.23;;;;;;;;;;5027062;28;20182;-57
2021/12/15 13:51:11;;;;;;;31.37;20.30;;;;;;;;;;5030101;28;20174;-57
2021/12/15 13:53:37;;;;;;;32.20;19.97;;;;;;;;;;5030851;28;20255;-57
2021/12/15 13:56:04;;;;;;;31.97;19.70;;;;;;;;;;5030070;28;20360;-57
2021/12/15 13:58:31;;;;;;;35.33;21.23;;;;;;;;;;5012565;28;20226;-57
2021/12/15 14:01:04;;;;;;;30.43;18.57;;;;;;;;;;5029404;28;20223;-56
2021/12/15 14:03:31;;;;;;;31.07;19.43;;;;;;;;;;5013083;28;20193;-57
2021/12/15 14:06:03;;;;;;;34.20;20.13;;;;;;;;;;5030618;28;20197;-57
2021/12/15 14:08:36;;;;;;;31.67;20.67;;;;;;;;;;5030177;28;20178;-57
2021/12/15 14:11:29;;;;;;;31.13;20.03;;;;;;;;;;5030216;28;20644;-57
2021/12/15 14:14:00;;;;;;;31.03;20.57;;;;;;;;;;5028292;28;20222;-57
2021/12/15 14:16:32;;;;;;;30.10;19.10;;;;;;;;;;5028757;28;20612;-57
2021/12/15 14:19:00;;;;;;;30.70;20.60;;;;;;;;;;5029352;28;20200;-57
2021/12/15 14:21:27;;;;;;;32.83;21.30;;;;;;;;;;5030165;28;20186;-56
2021/12/15 14:23:53;;;;;;;33.87;20.87;;;;;;;;;;5012104;28;20697;-57
2021/12/15 14:26:24;;;;;;;30.20;19.67;;;;;;;;;;4998375;28;20209;-57
2021/12/15 14:28:56;;;;;;;32.70;21.77;;;;;;;;;;5030151;28;20170;-57
2021/12/15 14:31:24;;;;;;;32.73;20.90;;;;;;;;;;5028824;28;20247;-57
2021/12/15 14:33:52;;;;;;;33.53;20.67;;;;;;;;;;5029606;28;20217;-57
2021/12/15 14:36:21;;;;;;;30.67;20.23;;;;;;;;;;5029903;28;20185;-58
2021/12/15 14:38:48;;;;;;;28.10;19.07;;;;;;;;;;5037912;28;20193;-57
2021/12/15 14:41:17;;;;;;;30.10;20.30;;;;;;;;;;5029961;28;20282;-58
2021/12/15 14:43:47;;;;;;;28.47;20.03;;;;;;;;;;5026919;28;20674;-58
2021/12/15 14:46:21;;;;;;;36.83;20.57;;;;;;;;;;5026478;28;20348;-57
2021/12/15 14:48:56;;;;;;;41.50;20.27;;;;;;;;;;5029345;28;20659;-57
2021/12/15 14:51:23;;;;;;;30.53;20.03;;;;;;;;;;5028936;28;20758;-57
2021/12/15 14:53:49;;;;;;;26.80;19.60;;;;;;;;;;5030923;28;20474;-57
2021/12/15 14:56:15;;;;;;;25.97;18.37;;;;;;;;;;5031324;28;20225;-57
2021/12/15 14:58:41;;;;;;;25.43;18.23;;;;;;;;;;5027672;28;20182;-57
2021/12/15 15:01:07;;;;;;;25.53;17.93;;;;;;;;;;5028218;28;20181;-57
2021/12/15 15:03:35;;;;;;;25.43;17.73;;;;;;;;;;5029272;28;20218;-56
2021/12/15 15:06:01;;;;;;;24.90;17.60;;;;;;;;;;5029046;28;20704;-57
2021/12/15 15:08:30;;;;;;;22.23;17.03;;;;;;;;;;5029543;28;20221;-57
2021/12/15 15:10:57;;;;;;;23.03;17.07;;;;;;;;;;5011530;28;20240;-57
2021/12/15 15:13:25;;;;;;;19.00;15.83;;;;;;;;;;5004598;28;20186;-57
2021/12/15 15:15:53;;;;;;;19.20;15.17;;;;;;;;;;5027782;28;20186;-55
2021/12/15 15:21:00;;;;;;;19.20;15.80;;;;;;;;;;5020098;28;20878;-57
2021/12/15 15:23:28;;;;;;;24.33;16.87;;;;;;;;;;5026844;28;20189;-57
2021/12/15 15:25:55;;;;;;;28.47;17.00;;;;;;;;;;5029043;28;20665;-57
2021/12/15 15:28:24;;;;;;;23.23;16.10;;;;;;;;;;5007572;28;20177;-57
2021/12/15 15:30:51;;;;;;;22.80;16.77;;;;;;;;;;5018537;28;20177;-57
2021/12/15 15:33:18;;;;;;;19.97;15.30;;;;;;;;;;5025647;28;20548;-57
2021/12/15 15:35:47;;;;;;;19.67;14.87;;;;;;;;;;5023560;28;20201;-56
2021/12/15 15:38:18;;;;;;;20.50;15.10;;;;;;;;;;5009887;28;20186;-56
2021/12/15 15:40:46;;;;;;;19.47;16.07;;;;;;;;;;5010761;28;20224;-57
2021/12/15 15:43:17;;;;;;;23.30;15.30;;;;;;;;;;5024277;28;20213;-56
2021/12/15 15:45:45;;;;;;;21.23;16.40;;;;;;;;;;5025652;28;20267;-56
2021/12/15 15:48:14;;;;;;;18.40;15.53;;;;;;;;;;5027009;28;20704;-56
2021/12/15 15:50:41;;;;;;;19.47;15.43;;;;;;;;;;5040610;28;20185;-56
2021/12/15 15:53:09;;;;;;;23.23;15.63;;;;;;;;;;5012903;28;20688;-57
2021/12/15 15:55:39;;;;;;;20.97;17.03;;;;;;;;;;5031472;28;20224;-56
2021/12/15 15:58:06;;;;;;;21.40;17.03;;;;;;;;;;5027960;28;20216;-56
2021/12/15 16:00:35;;;;;;;23.67;17.57;;;;;;;;;;5027177;28;20205;-57